Bellwood, Alabama
Current Conditions -  °F | °C
As of 6:58 AM on Monday 22 Dec 2014 (Local Time) from KOZR Reporting Station
Drizzle Drizzle  
Wind Chill: 51°   Ceiling: 300
Heat Index: 51°   Visibility: 7mi
Dew Point: 50°   Wind: 8mph
Humidity: 96%   Direction: 30°NNE
Pressure: 29.96"   Gusts: NA
Location:  31.17°N, 85.79°W
Report Text: KOZR 221258Z AUTO 03007KT 7SM -DZ OVC003 11/10 A2996 RMK AO2 RAB1213E1247DZB1210E1213B1247 SLP148 P0004 T01050099
Loading
Personal Weather Stations






























Interactive Weather Map New forecast layout! Learn more

10-Day Weather Forecast

Advertisements
Track Severe Weather on mobile